sensor_id;sensor_type;location;lat;lon;timestamp;P1;durP1;ratioP1;P2;durP2;ratioP2
21941;SDS011;11135;54.192;15.670;2023-03-20T00:02:27;13.77;;;11.60;;
21941;SDS011;11135;54.192;15.670;2023-03-20T00:05:41;13.45;;;10.80;;
21941;SDS011;11135;54.192;15.670;2023-03-20T00:08:49;15.45;;;11.43;;
21941;SDS011;11135;54.192;15.670;2023-03-20T00:12:15;15.32;;;10.80;;
21941;SDS011;11135;54.192;15.670;2023-03-20T00:18:51;16.73;;;11.77;;
21941;SDS011;11135;54.192;15.670;2023-03-20T00:21:58;14.40;;;11.43;;
21941;SDS011;11135;54.192;15.670;2023-03-20T00:25:14;14.65;;;11.68;;
21941;SDS011;11135;54.192;15.670;2023-03-20T00:28:30;16.90;;;12.15;;
21941;SDS011;11135;54.192;15.670;2023-03-20T00:31:44;16.63;;;12.68;;
21941;SDS011;11135;54.192;15.670;2023-03-20T00:34:57;13.57;;;11.80;;
21941;SDS011;11135;54.192;15.670;2023-03-20T00:38:02;15.57;;;11.85;;
21941;SDS011;11135;54.192;15.670;2023-03-20T00:41:18;16.98;;;12.52;;
21941;SDS011;11135;54.192;15.670;2023-03-20T00:44:29;14.77;;;11.98;;
21941;SDS011;11135;54.192;15.670;2023-03-20T00:47:39;16.20;;;13.30;;
21941;SDS011;11135;54.192;15.670;2023-03-20T00:50:52;17.80;;;13.45;;
21941;SDS011;11135;54.192;15.670;2023-03-20T00:54:07;17.48;;;12.85;;
21941;SDS011;11135;54.192;15.670;2023-03-20T00:57:19;20.08;;;14.38;;
21941;SDS011;11135;54.192;15.670;2023-03-20T01:00:33;17.27;;;14.30;;
21941;SDS011;11135;54.192;15.670;2023-03-20T01:03:43;18.08;;;13.43;;
21941;SDS011;11135;54.192;15.670;2023-03-20T01:06:52;15.68;;;13.15;;
21941;SDS011;11135;54.192;15.670;2023-03-20T01:10:03;16.25;;;13.35;;
21941;SDS011;11135;54.192;15.670;2023-03-20T01:13:13;19.13;;;14.90;;
21941;SDS011;11135;54.192;15.670;2023-03-20T01:16:22;18.50;;;14.15;;
21941;SDS011;11135;54.192;15.670;2023-03-20T01:19:28;18.20;;;13.85;;
21941;SDS011;11135;54.192;15.670;2023-03-20T01:22:41;18.50;;;14.48;;
21941;SDS011;11135;54.192;15.670;2023-03-20T01:25:48;17.20;;;14.25;;
21941;SDS011;11135;54.192;15.670;2023-03-20T01:28:55;17.08;;;14.02;;
21941;SDS011;11135;54.192;15.670;2023-03-20T01:32:01;17.80;;;13.90;;
21941;SDS011;11135;54.192;15.670;2023-03-20T01:35:11;18.75;;;15.02;;
21941;SDS011;11135;54.192;15.670;2023-03-20T01:38:25;19.15;;;15.45;;
21941;SDS011;11135;54.192;15.670;2023-03-20T01:41:36;22.08;;;16.38;;
21941;SDS011;11135;54.192;15.670;2023-03-20T01:44:42;21.77;;;17.23;;
21941;SDS011;11135;54.192;15.670;2023-03-20T01:47:49;19.20;;;14.77;;
21941;SDS011;11135;54.192;15.670;2023-03-20T01:50:57;18.50;;;14.65;;
21941;SDS011;11135;54.192;15.670;2023-03-20T01:54:11;19.88;;;13.85;;
21941;SDS011;11135;54.192;15.670;2023-03-20T01:57:20;19.58;;;14.15;;
21941;SDS011;11135;54.192;15.670;2023-03-20T02:00:30;19.27;;;14.77;;
21941;SDS011;11135;54.192;15.670;2023-03-20T02:03:38;16.45;;;14.02;;
21941;SDS011;11135;54.192;15.670;2023-03-20T02:06:47;18.77;;;14.18;;
21941;SDS011;11135;54.192;15.670;2023-03-20T02:10:12;17.88;;;14.55;;
21941;SDS011;11135;54.192;15.670;2023-03-20T02:13:24;17.05;;;14.20;;
21941;SDS011;11135;54.192;15.670;2023-03-20T02:16:50;20.65;;;14.85;;
21941;SDS011;11135;54.192;15.670;2023-03-20T02:20:02;17.57;;;13.40;;
21941;SDS011;11135;54.192;15.670;2023-03-20T02:40:16;19.15;;;14.05;;
21941;SDS011;11135;54.192;15.670;2023-03-20T02:43:27;20.35;;;14.82;;
21941;SDS011;11135;54.192;15.670;2023-03-20T02:46:38;23.48;;;15.68;;
21941;SDS011;11135;54.192;15.670;2023-03-20T02:49:53;23.30;;;16.52;;
21941;SDS011;11135;54.192;15.670;2023-03-20T02:53:03;23.67;;;18.02;;
21941;SDS011;11135;54.192;15.670;2023-03-20T02:56:20;24.13;;;18.65;;
21941;SDS011;11135;54.192;15.670;2023-03-20T02:59:31;24.48;;;19.75;;
21941;SDS011;11135;54.192;15.670;2023-03-20T03:02:40;26.30;;;19.20;;
21941;SDS011;11135;54.192;15.670;2023-03-20T03:05:48;24.90;;;18.13;;
21941;SDS011;11135;54.192;15.670;2023-03-20T03:09:01;27.23;;;18.50;;
21941;SDS011;11135;54.192;15.670;2023-03-20T03:12:13;26.95;;;18.85;;
21941;SDS011;11135;54.192;15.670;2023-03-20T03:15:24;28.42;;;19.83;;
21941;SDS011;11135;54.192;15.670;2023-03-20T03:18:36;23.15;;;18.00;;
21941;SDS011;11135;54.192;15.670;2023-03-20T03:21:45;29.77;;;21.65;;
21941;SDS011;11135;54.192;15.670;2023-03-20T03:25:04;27.90;;;20.95;;
21941;SDS011;11135;54.192;15.670;2023-03-20T03:28:25;26.17;;;19.42;;
21941;SDS011;11135;54.192;15.670;2023-03-20T03:31:40;25.20;;;18.90;;
21941;SDS011;11135;54.192;15.670;2023-03-20T03:34:47;28.02;;;19.92;;
21941;SDS011;11135;54.192;15.670;2023-03-20T03:38:03;29.10;;;19.80;;
21941;SDS011;11135;54.192;15.670;2023-03-20T03:41:21;30.52;;;20.60;;
21941;SDS011;11135;54.192;15.670;2023-03-20T03:44:35;32.92;;;22.05;;
21941;SDS011;11135;54.192;15.670;2023-03-20T03:47:46;38.53;;;23.27;;
21941;SDS011;11135;54.192;15.670;2023-03-20T03:50:56;33.67;;;23.08;;
21941;SDS011;11135;54.192;15.670;2023-03-20T03:54:07;34.35;;;21.90;;
21941;SDS011;11135;54.192;15.670;2023-03-20T03:57:17;34.80;;;24.13;;
21941;SDS011;11135;54.192;15.670;2023-03-20T04:00:28;32.10;;;20.88;;
21941;SDS011;11135;54.192;15.670;2023-03-20T04:03:35;31.63;;;19.23;;
21941;SDS011;11135;54.192;15.670;2023-03-20T04:06:42;41.75;;;25.70;;
21941;SDS011;11135;54.192;15.670;2023-03-20T04:09:49;40.75;;;26.55;;
21941;SDS011;11135;54.192;15.670;2023-03-20T04:12:57;42.97;;;27.38;;
21941;SDS011;11135;54.192;15.670;2023-03-20T04:16:13;46.05;;;28.00;;
21941;SDS011;11135;54.192;15.670;2023-03-20T04:19:20;53.65;;;29.83;;
21941;SDS011;11135;54.192;15.670;2023-03-20T04:22:27;43.78;;;26.95;;
21941;SDS011;11135;54.192;15.670;2023-03-20T04:25:38;50.40;;;28.30;;
21941;SDS011;11135;54.192;15.670;2023-03-20T04:28:55;47.00;;;27.52;;
21941;SDS011;11135;54.192;15.670;2023-03-20T04:32:05;49.92;;;28.42;;
21941;SDS011;11135;54.192;15.670;2023-03-20T04:35:11;44.38;;;26.95;;
21941;SDS011;11135;54.192;15.670;2023-03-20T04:38:17;47.13;;;28.60;;
21941;SDS011;11135;54.192;15.670;2023-03-20T04:41:24;38.15;;;23.20;;
21941;SDS011;11135;54.192;15.670;2023-03-20T04:44:32;43.35;;;25.83;;
21941;SDS011;11135;54.192;15.670;2023-03-20T04:47:48;45.47;;;28.33;;
21941;SDS011;11135;54.192;15.670;2023-03-20T04:51:00;38.15;;;23.75;;
21941;SDS011;11135;54.192;15.670;2023-03-20T04:54:05;41.05;;;26.10;;
21941;SDS011;11135;54.192;15.670;2023-03-20T04:57:12;41.67;;;24.92;;
21941;SDS011;11135;54.192;15.670;2023-03-20T05:00:19;35.28;;;22.60;;
21941;SDS011;11135;54.192;15.670;2023-03-20T05:03:30;37.55;;;25.30;;
21941;SDS011;11135;54.192;15.670;2023-03-20T05:06:38;31.92;;;21.55;;
21941;SDS011;11135;54.192;15.670;2023-03-20T05:09:46;34.53;;;24.27;;
21941;SDS011;11135;54.192;15.670;2023-03-20T05:12:51;30.40;;;22.25;;
21941;SDS011;11135;54.192;15.670;2023-03-20T05:15:58;30.95;;;21.55;;
21941;SDS011;11135;54.192;15.670;2023-03-20T05:19:06;25.95;;;20.38;;
21941;SDS011;11135;54.192;15.670;2023-03-20T05:22:14;38.00;;;25.98;;
21941;SDS011;11135;54.192;15.670;2023-03-20T05:25:19;29.80;;;22.33;;
21941;SDS011;11135;54.192;15.670;2023-03-20T05:28:26;31.45;;;22.08;;
21941;SDS011;11135;54.192;15.670;2023-03-20T05:31:32;30.25;;;21.15;;
21941;SDS011;11135;54.192;15.670;2023-03-20T05:34:42;28.77;;;19.75;;
21941;SDS011;11135;54.192;15.670;2023-03-20T05:37:49;29.23;;;19.85;;
21941;SDS011;11135;54.192;15.670;2023-03-20T05:40:55;25.77;;;17.10;;
21941;SDS011;11135;54.192;15.670;2023-03-20T05:44:09;51.35;;;26.08;;
21941;SDS011;11135;54.192;15.670;2023-03-20T05:47:17;49.05;;;25.63;;
21941;SDS011;11135;54.192;15.670;2023-03-20T05:50:29;84.20;;;28.85;;
21941;SDS011;11135;54.192;15.670;2023-03-20T05:53:35;73.60;;;25.70;;
21941;SDS011;11135;54.192;15.670;2023-03-20T05:56:44;127.90;;;35.25;;
21941;SDS011;11135;54.192;15.670;2023-03-20T05:59:51;127.53;;;30.08;;
21941;SDS011;11135;54.192;15.670;2023-03-20T06:03:03;42.10;;;16.63;;
21941;SDS011;11135;54.192;15.670;2023-03-20T06:06:11;204.88;;;34.05;;
21941;SDS011;11135;54.192;15.670;2023-03-20T06:09:19;322.40;;;41.35;;
21941;SDS011;11135;54.192;15.670;2023-03-20T06:12:28;136.73;;;27.75;;
21941;SDS011;11135;54.192;15.670;2023-03-20T06:15:35;220.70;;;31.20;;
21941;SDS011;11135;54.192;15.670;2023-03-20T06:18:43;210.93;;;33.38;;
21941;SDS011;11135;54.192;15.670;2023-03-20T06:21:56;206.60;;;32.35;;
21941;SDS011;11135;54.192;15.670;2023-03-20T06:25:02;167.63;;;25.98;;
21941;SDS011;11135;54.192;15.670;2023-03-20T06:28:07;310.33;;;35.58;;
21941;SDS011;11135;54.192;15.670;2023-03-20T06:31:14;115.50;;;22.60;;
21941;SDS011;11135;54.192;15.670;2023-03-20T06:34:19;309.48;;;39.00;;
21941;SDS011;11135;54.192;15.670;2023-03-20T06:37:32;213.70;;;29.67;;
21941;SDS011;11135;54.192;15.670;2023-03-20T06:40:37;207.68;;;31.63;;
21941;SDS011;11135;54.192;15.670;2023-03-20T06:43:46;205.65;;;27.42;;
21941;SDS011;11135;54.192;15.670;2023-03-20T06:46:53;199.60;;;27.13;;
21941;SDS011;11135;54.192;15.670;2023-03-20T06:49:59;123.63;;;20.88;;
21941;SDS011;11135;54.192;15.670;2023-03-20T06:53:07;207.10;;;29.13;;
21941;SDS011;11135;54.192;15.670;2023-03-20T06:56:18;87.70;;;19.27;;
21941;SDS011;11135;54.192;15.670;2023-03-20T06:59:23;210.18;;;31.13;;
21941;SDS011;11135;54.192;15.670;2023-03-20T07:02:32;254.20;;;30.90;;
21941;SDS011;11135;54.192;15.670;2023-03-20T07:05:39;85.68;;;18.95;;
21941;SDS011;11135;54.192;15.670;2023-03-20T07:08:50;75.78;;;16.08;;
21941;SDS011;11135;54.192;15.670;2023-03-20T07:11:57;126.22;;;23.52;;
21941;SDS011;11135;54.192;15.670;2023-03-20T07:15:05;117.00;;;21.90;;
21941;SDS011;11135;54.192;15.670;2023-03-20T07:18:10;58.88;;;15.45;;
21941;SDS011;11135;54.192;15.670;2023-03-20T07:21:18;68.88;;;17.88;;
21941;SDS011;11135;54.192;15.670;2023-03-20T07:24:27;81.53;;;19.55;;
21941;SDS011;11135;54.192;15.670;2023-03-20T07:27:33;76.40;;;20.10;;
21941;SDS011;11135;54.192;15.670;2023-03-20T07:30:38;77.63;;;19.85;;
21941;SDS011;11135;54.192;15.670;2023-03-20T07:33:44;52.05;;;15.50;;
21941;SDS011;11135;54.192;15.670;2023-03-20T07:36:49;69.93;;;18.52;;
21941;SDS011;11135;54.192;15.670;2023-03-20T07:39:58;50.97;;;14.63;;
21941;SDS011;11135;54.192;15.670;2023-03-20T07:43:03;62.38;;;16.77;;
21941;SDS011;11135;54.192;15.670;2023-03-20T07:46:13;50.92;;;17.20;;
21941;SDS011;11135;54.192;15.670;2023-03-20T07:49:18;55.85;;;16.60;;
21941;SDS011;11135;54.192;15.670;2023-03-20T07:52:26;65.80;;;16.98;;
21941;SDS011;11135;54.192;15.670;2023-03-20T07:55:34;40.60;;;14.95;;
21941;SDS011;11135;54.192;15.670;2023-03-20T07:58:40;42.72;;;14.00;;
21941;SDS011;11135;54.192;15.670;2023-03-20T08:01:45;52.30;;;15.38;;
21941;SDS011;11135;54.192;15.670;2023-03-20T08:04:55;54.45;;;15.30;;
21941;SDS011;11135;54.192;15.670;2023-03-20T08:08:01;43.45;;;13.82;;
21941;SDS011;11135;54.192;15.670;2023-03-20T08:11:14;45.50;;;15.57;;
21941;SDS011;11135;54.192;15.670;2023-03-20T08:14:22;61.83;;;18.20;;
21941;SDS011;11135;54.192;15.670;2023-03-20T08:17:28;39.17;;;16.15;;
21941;SDS011;11135;54.192;15.670;2023-03-20T08:20:36;55.10;;;18.85;;
21941;SDS011;11135;54.192;15.670;2023-03-20T08:23:43;48.30;;;17.33;;
21941;SDS011;11135;54.192;15.670;2023-03-20T08:26:53;46.65;;;17.88;;
21941;SDS011;11135;54.192;15.670;2023-03-20T08:30:06;61.70;;;18.25;;
21941;SDS011;11135;54.192;15.670;2023-03-20T08:33:19;54.67;;;17.23;;
21941;SDS011;11135;54.192;15.670;2023-03-20T08:36:27;54.63;;;16.60;;
21941;SDS011;11135;54.192;15.670;2023-03-20T08:39:42;52.83;;;18.95;;
21941;SDS011;11135;54.192;15.670;2023-03-20T08:42:55;44.45;;;19.08;;
21941;SDS011;11135;54.192;15.670;2023-03-20T08:46:00;37.78;;;15.95;;
21941;SDS011;11135;54.192;15.670;2023-03-20T08:49:09;35.05;;;14.82;;
21941;SDS011;11135;54.192;15.670;2023-03-20T08:52:20;38.00;;;16.23;;
21941;SDS011;11135;54.192;15.670;2023-03-20T08:55:27;33.67;;;14.65;;
21941;SDS011;11135;54.192;15.670;2023-03-20T08:58:35;18.90;;;8.85;;
21941;SDS011;11135;54.192;15.670;2023-03-20T09:01:42;31.90;;;12.48;;
21941;SDS011;11135;54.192;15.670;2023-03-20T09:05:01;45.50;;;17.08;;
21941;SDS011;11135;54.192;15.670;2023-03-20T09:08:13;35.75;;;14.75;;
21941;SDS011;11135;54.192;15.670;2023-03-20T09:11:19;23.52;;;11.27;;
21941;SDS011;11135;54.192;15.670;2023-03-20T09:14:36;30.80;;;14.02;;
21941;SDS011;11135;54.192;15.670;2023-03-20T09:21:00;31.35;;;13.35;;
21941;SDS011;11135;54.192;15.670;2023-03-20T09:24:06;28.05;;;10.82;;
21941;SDS011;11135;54.192;15.670;2023-03-20T09:27:21;32.28;;;12.77;;
21941;SDS011;11135;54.192;15.670;2023-03-20T09:30:29;35.10;;;12.18;;
21941;SDS011;11135;54.192;15.670;2023-03-20T09:33:35;23.10;;;10.50;;
21941;SDS011;11135;54.192;15.670;2023-03-20T09:36:43;18.25;;;7.85;;
21941;SDS011;11135;54.192;15.670;2023-03-20T09:39:50;23.23;;;8.90;;
21941;SDS011;11135;54.192;15.670;2023-03-20T09:43:01;29.85;;;10.32;;
21941;SDS011;11135;54.192;15.670;2023-03-20T09:46:16;16.05;;;7.32;;
21941;SDS011;11135;54.192;15.670;2023-03-20T09:49:26;19.10;;;7.82;;
21941;SDS011;11135;54.192;15.670;2023-03-20T09:52:35;20.88;;;8.27;;
21941;SDS011;11135;54.192;15.670;2023-03-20T09:55:43;17.70;;;7.60;;
21941;SDS011;11135;54.192;15.670;2023-03-20T09:58:51;11.30;;;5.18;;
21941;SDS011;11135;54.192;15.670;2023-03-20T10:02:01;15.35;;;7.18;;
21941;SDS011;11135;54.192;15.670;2023-03-20T10:08:25;17.38;;;7.68;;
21941;SDS011;11135;54.192;15.670;2023-03-20T10:11:44;22.38;;;9.32;;
21941;SDS011;11135;54.192;15.670;2023-03-20T10:15:00;23.48;;;9.35;;
21941;SDS011;11135;54.192;15.670;2023-03-20T10:18:14;18.52;;;7.28;;
21941;SDS011;11135;54.192;15.670;2023-03-20T10:21:22;22.77;;;11.48;;
21941;SDS011;11135;54.192;15.670;2023-03-20T10:24:31;23.52;;;9.20;;
21941;SDS011;11135;54.192;15.670;2023-03-20T10:27:38;22.10;;;8.10;;
21941;SDS011;11135;54.192;15.670;2023-03-20T10:31:01;21.38;;;9.82;;
21941;SDS011;11135;54.192;15.670;2023-03-20T10:37:29;18.92;;;8.98;;
21941;SDS011;11135;54.192;15.670;2023-03-20T10:40:37;22.48;;;9.85;;
21941;SDS011;11135;54.192;15.670;2023-03-20T10:43:47;18.08;;;9.38;;
21941;SDS011;11135;54.192;15.670;2023-03-20T10:46:53;23.45;;;9.52;;
21941;SDS011;11135;54.192;15.670;2023-03-20T10:50:02;24.27;;;11.50;;
21941;SDS011;11135;54.192;15.670;2023-03-20T11:06:36;26.42;;;11.75;;
21941;SDS011;11135;54.192;15.670;2023-03-20T11:13:12;20.17;;;8.10;;
21941;SDS011;11135;54.192;15.670;2023-03-20T11:16:22;20.10;;;8.48;;
21941;SDS011;11135;54.192;15.670;2023-03-20T11:19:31;22.65;;;10.32;;
21941;SDS011;11135;54.192;15.670;2023-03-20T11:22:40;26.55;;;11.02;;
21941;SDS011;11135;54.192;15.670;2023-03-20T11:29:02;25.73;;;10.38;;
21941;SDS011;11135;54.192;15.670;2023-03-20T11:32:16;21.60;;;9.37;;
21941;SDS011;11135;54.192;15.670;2023-03-20T11:35:28;20.13;;;9.13;;
21941;SDS011;11135;54.192;15.670;2023-03-20T11:38:46;20.20;;;8.88;;
21941;SDS011;11135;54.192;15.670;2023-03-20T11:41:53;30.05;;;12.50;;
21941;SDS011;11135;54.192;15.670;2023-03-20T11:45:00;23.15;;;9.85;;
21941;SDS011;11135;54.192;15.670;2023-03-20T11:48:13;23.67;;;9.77;;
21941;SDS011;11135;54.192;15.670;2023-03-20T11:51:19;31.17;;;11.75;;
21941;SDS011;11135;54.192;15.670;2023-03-20T11:54:28;30.38;;;12.93;;
21941;SDS011;11135;54.192;15.670;2023-03-20T11:57:36;37.70;;;13.73;;
21941;SDS011;11135;54.192;15.670;2023-03-20T12:00:42;29.70;;;13.40;;
21941;SDS011;11135;54.192;15.670;2023-03-20T12:03:49;29.15;;;13.43;;
21941;SDS011;11135;54.192;15.670;2023-03-20T12:07:00;27.63;;;11.07;;
21941;SDS011;11135;54.192;15.670;2023-03-20T12:10:12;26.90;;;9.20;;
21941;SDS011;11135;54.192;15.670;2023-03-20T12:16:27;34.38;;;11.40;;
21941;SDS011;11135;54.192;15.670;2023-03-20T12:19:40;31.50;;;10.23;;
21941;SDS011;11135;54.192;15.670;2023-03-20T12:22:50;30.38;;;11.48;;
21941;SDS011;11135;54.192;15.670;2023-03-20T12:26:02;25.73;;;11.82;;
21941;SDS011;11135;54.192;15.670;2023-03-20T12:29:09;21.77;;;8.93;;
21941;SDS011;11135;54.192;15.670;2023-03-20T12:32:19;19.15;;;7.97;;
21941;SDS011;11135;54.192;15.670;2023-03-20T12:35:29;21.13;;;9.27;;
21941;SDS011;11135;54.192;15.670;2023-03-20T12:38:37;27.38;;;9.57;;
21941;SDS011;11135;54.192;15.670;2023-03-20T12:41:52;19.58;;;7.82;;
21941;SDS011;11135;54.192;15.670;2023-03-20T12:45:03;32.55;;;11.07;;
21941;SDS011;11135;54.192;15.670;2023-03-20T12:48:17;25.17;;;10.77;;
21941;SDS011;11135;54.192;15.670;2023-03-20T12:51:28;26.90;;;11.35;;
21941;SDS011;11135;54.192;15.670;2023-03-20T12:54:39;25.58;;;11.18;;
21941;SDS011;11135;54.192;15.670;2023-03-20T12:57:50;24.55;;;10.50;;
21941;SDS011;11135;54.192;15.670;2023-03-20T13:01:01;19.83;;;8.13;;
21941;SDS011;11135;54.192;15.670;2023-03-20T13:04:12;14.18;;;6.45;;
21941;SDS011;11135;54.192;15.670;2023-03-20T13:07:36;17.10;;;6.55;;
21941;SDS011;11135;54.192;15.670;2023-03-20T13:10:51;13.45;;;5.30;;
21941;SDS011;11135;54.192;15.670;2023-03-20T13:14:05;10.63;;;5.38;;
21941;SDS011;11135;54.192;15.670;2023-03-20T13:17:14;11.77;;;5.78;;
21941;SDS011;11135;54.192;15.670;2023-03-20T13:20:23;8.43;;;4.03;;
21941;SDS011;11135;54.192;15.670;2023-03-20T13:23:32;8.52;;;4.82;;
21941;SDS011;11135;54.192;15.670;2023-03-20T13:26:42;9.57;;;5.20;;
21941;SDS011;11135;54.192;15.670;2023-03-20T13:29:57;9.50;;;4.82;;
21941;SDS011;11135;54.192;15.670;2023-03-20T13:33:07;8.52;;;4.57;;
21941;SDS011;11135;54.192;15.670;2023-03-20T13:39:30;7.38;;;3.80;;
21941;SDS011;11135;54.192;15.670;2023-03-20T13:42:42;7.43;;;3.80;;
21941;SDS011;11135;54.192;15.670;2023-03-20T13:46:00;4.88;;;2.92;;
21941;SDS011;11135;54.192;15.670;2023-03-20T13:49:13;7.15;;;3.50;;
21941;SDS011;11135;54.192;15.670;2023-03-20T13:52:24;6.90;;;3.75;;
21941;SDS011;11135;54.192;15.670;2023-03-20T13:55:36;7.78;;;3.42;;
21941;SDS011;11135;54.192;15.670;2023-03-20T14:02:14;7.80;;;3.80;;
21941;SDS011;11135;54.192;15.670;2023-03-20T14:05:27;6.25;;;3.20;;
21941;SDS011;11135;54.192;15.670;2023-03-20T14:08:34;8.10;;;4.47;;
21941;SDS011;11135;54.192;15.670;2023-03-20T14:11:43;7.60;;;3.67;;
21941;SDS011;11135;54.192;15.670;2023-03-20T14:14:49;9.48;;;4.53;;
21941;SDS011;11135;54.192;15.670;2023-03-20T14:17:59;8.95;;;4.78;;
21941;SDS011;11135;54.192;15.670;2023-03-20T14:21:08;7.45;;;3.90;;
21941;SDS011;11135;54.192;15.670;2023-03-20T14:24:16;9.50;;;5.18;;
21941;SDS011;11135;54.192;15.670;2023-03-20T14:27:23;7.68;;;4.80;;
21941;SDS011;11135;54.192;15.670;2023-03-20T14:30:46;9.52;;;4.65;;
21941;SDS011;11135;54.192;15.670;2023-03-20T14:33:57;8.57;;;4.20;;
21941;SDS011;11135;54.192;15.670;2023-03-20T14:37:04;8.85;;;4.57;;
21941;SDS011;11135;54.192;15.670;2023-03-20T14:40:31;10.07;;;5.40;;
21941;SDS011;11135;54.192;15.670;2023-03-20T14:43:44;9.57;;;5.47;;
21941;SDS011;11135;54.192;15.670;2023-03-20T14:46:56;11.55;;;6.13;;
21941;SDS011;11135;54.192;15.670;2023-03-20T14:50:08;8.60;;;4.70;;
21941;SDS011;11135;54.192;15.670;2023-03-20T14:53:15;10.57;;;5.13;;
21941;SDS011;11135;54.192;15.670;2023-03-20T14:56:26;11.73;;;6.13;;
21941;SDS011;11135;54.192;15.670;2023-03-20T14:59:32;8.25;;;4.43;;
21941;SDS011;11135;54.192;15.670;2023-03-20T15:02:39;11.20;;;5.78;;
21941;SDS011;11135;54.192;15.670;2023-03-20T15:05:55;8.77;;;4.80;;
21941;SDS011;11135;54.192;15.670;2023-03-20T15:09:03;10.52;;;4.95;;
21941;SDS011;11135;54.192;15.670;2023-03-20T15:12:11;9.90;;;6.28;;
21941;SDS011;11135;54.192;15.670;2023-03-20T15:15:22;9.90;;;5.85;;
21941;SDS011;11135;54.192;15.670;2023-03-20T15:18:29;9.73;;;5.10;;
21941;SDS011;11135;54.192;15.670;2023-03-20T15:21:42;11.80;;;5.78;;
21941;SDS011;11135;54.192;15.670;2023-03-20T15:24:55;8.65;;;4.28;;
21941;SDS011;11135;54.192;15.670;2023-03-20T15:28:06;9.77;;;5.40;;
21941;SDS011;11135;54.192;15.670;2023-03-20T15:31:18;8.38;;;4.47;;
21941;SDS011;11135;54.192;15.670;2023-03-20T15:34:26;9.18;;;4.65;;
21941;SDS011;11135;54.192;15.670;2023-03-20T15:37:36;11.50;;;6.13;;
21941;SDS011;11135;54.192;15.670;2023-03-20T15:40:42;9.88;;;5.82;;
21941;SDS011;11135;54.192;15.670;2023-03-20T15:43:52;9.77;;;5.05;;
21941;SDS011;11135;54.192;15.670;2023-03-20T15:50:10;10.43;;;5.23;;
21941;SDS011;11135;54.192;15.670;2023-03-20T15:53:22;8.82;;;4.82;;
21941;SDS011;11135;54.192;15.670;2023-03-20T15:56:31;12.43;;;6.03;;
21941;SDS011;11135;54.192;15.670;2023-03-20T15:59:37;10.73;;;5.10;;
21941;SDS011;11135;54.192;15.670;2023-03-20T16:02:43;11.30;;;5.68;;
21941;SDS011;11135;54.192;15.670;2023-03-20T16:05:50;9.88;;;5.30;;
21941;SDS011;11135;54.192;15.670;2023-03-20T16:09:00;8.77;;;4.65;;
21941;SDS011;11135;54.192;15.670;2023-03-20T16:12:13;12.13;;;5.95;;
21941;SDS011;11135;54.192;15.670;2023-03-20T16:15:28;9.23;;;4.65;;
21941;SDS011;11135;54.192;15.670;2023-03-20T16:18:37;12.00;;;5.75;;
21941;SDS011;11135;54.192;15.670;2023-03-20T16:21:43;6.18;;;3.10;;
21941;SDS011;11135;54.192;15.670;2023-03-20T16:24:59;9.50;;;4.93;;
21941;SDS011;11135;54.192;15.670;2023-03-20T16:28:07;11.52;;;5.65;;
21941;SDS011;11135;54.192;15.670;2023-03-20T16:31:15;14.30;;;6.25;;
21941;SDS011;11135;54.192;15.670;2023-03-20T16:34:21;12.18;;;6.82;;
21941;SDS011;11135;54.192;15.670;2023-03-20T16:37:29;9.77;;;5.15;;
21941;SDS011;11135;54.192;15.670;2023-03-20T16:40:38;14.02;;;6.30;;
21941;SDS011;11135;54.192;15.670;2023-03-20T16:43:45;14.23;;;6.15;;
21941;SDS011;11135;54.192;15.670;2023-03-20T16:46:55;8.95;;;4.18;;
21941;SDS011;11135;54.192;15.670;2023-03-20T16:50:09;10.43;;;5.30;;
21941;SDS011;11135;54.192;15.670;2023-03-20T16:53:18;11.20;;;5.47;;
21941;SDS011;11135;54.192;15.670;2023-03-20T16:56:31;14.15;;;7.15;;
21941;SDS011;11135;54.192;15.670;2023-03-20T16:59:37;12.60;;;5.47;;
21941;SDS011;11135;54.192;15.670;2023-03-20T17:02:48;15.02;;;6.63;;
21941;SDS011;11135;54.192;15.670;2023-03-20T17:05:55;12.25;;;6.00;;
21941;SDS011;11135;54.192;15.670;2023-03-20T17:09:07;12.25;;;5.43;;
21941;SDS011;11135;54.192;15.670;2023-03-20T17:12:18;14.30;;;5.43;;
21941;SDS011;11135;54.192;15.670;2023-03-20T17:15:28;12.65;;;5.72;;
21941;SDS011;11135;54.192;15.670;2023-03-20T17:18:36;8.43;;;3.83;;
21941;SDS011;11135;54.192;15.670;2023-03-20T17:21:42;14.38;;;6.80;;
21941;SDS011;11135;54.192;15.670;2023-03-20T17:24:48;14.02;;;5.90;;
21941;SDS011;11135;54.192;15.670;2023-03-20T17:27:59;11.65;;;4.80;;
21941;SDS011;11135;54.192;15.670;2023-03-20T17:31:05;14.30;;;6.28;;
21941;SDS011;11135;54.192;15.670;2023-03-20T17:34:12;14.13;;;6.40;;
21941;SDS011;11135;54.192;15.670;2023-03-20T17:37:21;15.68;;;5.55;;
21941;SDS011;11135;54.192;15.670;2023-03-20T17:40:31;13.38;;;5.95;;
21941;SDS011;11135;54.192;15.670;2023-03-20T17:43:44;10.43;;;4.72;;
21941;SDS011;11135;54.192;15.670;2023-03-20T17:46:54;14.02;;;5.35;;
21941;SDS011;11135;54.192;15.670;2023-03-20T17:50:03;10.27;;;4.68;;
21941;SDS011;11135;54.192;15.670;2023-03-20T17:53:15;10.90;;;4.60;;
21941;SDS011;11135;54.192;15.670;2023-03-20T17:56:21;8.85;;;4.82;;
21941;SDS011;11135;54.192;15.670;2023-03-20T17:59:33;14.07;;;5.05;;
21941;SDS011;11135;54.192;15.670;2023-03-20T18:02:39;9.02;;;4.68;;
21941;SDS011;11135;54.192;15.670;2023-03-20T18:05:49;7.97;;;4.70;;
21941;SDS011;11135;54.192;15.670;2023-03-20T18:08:58;12.77;;;5.28;;
21941;SDS011;11135;54.192;15.670;2023-03-20T18:12:16;12.25;;;5.30;;
21941;SDS011;11135;54.192;15.670;2023-03-20T18:15:26;10.88;;;6.18;;
21941;SDS011;11135;54.192;15.670;2023-03-20T18:18:33;13.75;;;6.53;;
21941;SDS011;11135;54.192;15.670;2023-03-20T18:21:40;13.10;;;7.07;;
21941;SDS011;11135;54.192;15.670;2023-03-20T18:24:47;12.75;;;7.05;;
21941;SDS011;11135;54.192;15.670;2023-03-20T18:27:59;17.15;;;7.70;;
21941;SDS011;11135;54.192;15.670;2023-03-20T18:31:09;14.93;;;7.47;;
21941;SDS011;11135;54.192;15.670;2023-03-20T18:34:22;17.02;;;8.60;;
21941;SDS011;11135;54.192;15.670;2023-03-20T18:37:29;16.95;;;8.20;;
21941;SDS011;11135;54.192;15.670;2023-03-20T18:40:35;19.15;;;9.27;;
21941;SDS011;11135;54.192;15.670;2023-03-20T18:43:42;16.98;;;7.65;;
21941;SDS011;11135;54.192;15.670;2023-03-20T18:46:51;17.42;;;8.45;;
21941;SDS011;11135;54.192;15.670;2023-03-20T18:50:02;18.40;;;8.43;;
21941;SDS011;11135;54.192;15.670;2023-03-20T18:53:10;12.98;;;7.45;;
21941;SDS011;11135;54.192;15.670;2023-03-20T18:56:17;14.98;;;8.93;;
21941;SDS011;11135;54.192;15.670;2023-03-20T18:59:23;16.10;;;8.00;;
21941;SDS011;11135;54.192;15.670;2023-03-20T19:02:34;14.52;;;8.05;;
21941;SDS011;11135;54.192;15.670;2023-03-20T19:05:41;18.08;;;8.88;;
21941;SDS011;11135;54.192;15.670;2023-03-20T19:08:49;17.80;;;8.32;;
21941;SDS011;11135;54.192;15.670;2023-03-20T19:11:55;14.43;;;8.75;;
21941;SDS011;11135;54.192;15.670;2023-03-20T19:15:02;16.00;;;8.55;;
21941;SDS011;11135;54.192;15.670;2023-03-20T19:18:14;17.00;;;8.85;;
21941;SDS011;11135;54.192;15.670;2023-03-20T19:21:21;17.67;;;9.45;;
21941;SDS011;11135;54.192;15.670;2023-03-20T19:24:27;16.48;;;9.80;;
21941;SDS011;11135;54.192;15.670;2023-03-20T19:27:37;16.23;;;9.65;;